KLFI/LFI METAR and TAF weather

Enter ICAO airport designator
Station Type Date Time Source
KLFI METAR 2022/07/03 13:56 UTC NOAA

KLFI 031356Z AUTO 34003KT 9SM FEW180 28/26 A3000 RMK AO2 SLP165 T02770261 $


Station Type Date Time Source
KLFI Decoded METAR 2022/07/03 13:56 UTC NOAA

Langley Air Force Base, VA, United States (KLFI) 37-05N 076-21W 6M
Jul 03, 2022 - 09:56 AM EDT / 2022.07.03 1356 UTC
Wind: from the NNW (340 degrees) at 3 MPH (3 KT):0
Visibility: 9 mile(s):0
Sky conditions: mostly clear
Temperature: 81.9 F (27.7 C)
Dew Point: 79.0 F (26.1 C)
Relative Humidity: 91%
Pressure (altimeter): 30 in. Hg (1015 hPa)
ob: KLFI 031356Z AUTO 34003KT 9SM FEW180 28/26 A3000 RMK AO2 SLP165 T02770261
cycle: 14

Station Type Date Time Source
KLFI TAF 2022/07/01 19:26 UTC NOAA

TAF
AMD KLFI 011905Z 0119/0217 18012KT 9999 FEW150 QNH3007INS
BECMG 0204/0205 21012KT 9999 SCT050 QNH2998INS TX32/0119Z TN23/0209Z LAST NO
AMDS AFT 0119 NEXT 0509

Example: see airport list